createdAt,value
2022-08-20T00:02:12.199Z,7.20
2022-08-20T00:04:40.903Z,7.20
2022-08-20T00:07:08.078Z,6.20
2022-08-20T00:09:36.699Z,6.70
2022-08-20T00:12:09.346Z,6.10
2022-08-20T00:14:36.646Z,6.00
2022-08-20T00:17:05.491Z,6.30
2022-08-20T00:19:33.630Z,6.50
2022-08-20T00:22:00.946Z,6.60
2022-08-20T00:24:28.618Z,7.10
2022-08-20T00:26:55.975Z,6.70
2022-08-20T00:29:23.317Z,6.90
2022-08-20T00:31:51.151Z,6.50
2022-08-20T00:34:18.939Z,6.50
2022-08-20T00:36:46.914Z,6.40
2022-08-20T00:39:14.642Z,5.80
2022-08-20T00:41:42.130Z,5.90
2022-08-20T00:44:18.094Z,5.50
2022-08-20T00:46:46.716Z,6.20
2022-08-20T00:49:27.513Z,6.50
2022-08-20T00:52:20.511Z,7.10
2022-08-20T00:54:56.279Z,6.60
2022-08-20T00:57:54.908Z,6.50
2022-08-20T01:00:44.248Z,7.50
2022-08-20T01:03:15.285Z,6.10
2022-08-20T01:08:14.083Z,5.90
2022-08-20T01:10:44.483Z,6.10
2022-08-20T01:13:17.782Z,6.80
2022-08-20T01:15:48.583Z,6.40
2022-08-20T01:18:20.634Z,6.90
2022-08-20T01:20:56.750Z,6.10
2022-08-20T01:23:51.232Z,6.70
2022-08-20T01:26:32.006Z,6.40
2022-08-20T01:29:04.557Z,6.60
2022-08-20T01:31:36.740Z,7.20
2022-08-20T01:34:07.848Z,7.10
2022-08-20T01:39:13.999Z,7.00
2022-08-20T01:41:52.639Z,7.10
2022-08-20T01:44:22.756Z,6.60
2022-08-20T01:46:57.848Z,6.70
2022-08-20T01:49:31.349Z,7.20
2022-08-20T01:52:02.777Z,6.70
2022-08-20T01:54:33.284Z,6.50
2022-08-20T01:57:11.433Z,6.90
2022-08-20T01:59:39.791Z,6.80
2022-08-20T02:02:07.891Z,6.50
2022-08-20T02:04:36.075Z,6.70
2022-08-20T02:07:06.286Z,6.70
2022-08-20T02:09:38.791Z,6.80
2022-08-20T02:12:08.954Z,6.70
2022-08-20T02:14:47.411Z,7.00
2022-08-20T02:17:15.567Z,7.20
2022-08-20T02:19:59.196Z,7.50
2022-08-20T02:22:37.441Z,7.30
2022-08-20T02:25:08.397Z,7.10
2022-08-20T02:30:10.948Z,6.80
2022-08-20T02:32:49.868Z,6.70
2022-08-20T02:35:23.255Z,6.40
2022-08-20T02:37:52.040Z,6.80
2022-08-20T02:40:27.230Z,7.00
2022-08-20T02:43:01.200Z,7.10
2022-08-20T02:45:30.966Z,7.10
2022-08-20T02:47:58.767Z,7.30
2022-08-20T02:50:26.969Z,7.20
2022-08-20T02:52:54.560Z,6.90
2022-08-20T02:55:27.384Z,7.30
2022-08-20T02:57:58.599Z,7.50
2022-08-20T03:00:32.086Z,7.10
2022-08-20T03:03:10.899Z,6.60
2022-08-20T03:05:42.206Z,6.90
2022-08-20T03:08:14.216Z,7.70
2022-08-20T03:10:44.424Z,7.40
2022-08-20T03:13:12.970Z,7.40
2022-08-20T03:15:46.529Z,7.40
2022-08-20T03:18:15.416Z,7.80
2022-08-20T03:20:43.971Z,7.90
2022-08-20T03:23:15.323Z,7.60
2022-08-20T03:25:43.503Z,7.40
2022-08-20T03:28:11.095Z,8.00
2022-08-20T03:30:39.225Z,7.80
2022-08-20T03:33:08.245Z,7.60
2022-08-20T03:35:36.872Z,8.20
2022-08-20T03:38:10.508Z,7.10
2022-08-20T03:40:38.170Z,8.10
2022-08-20T03:43:11.024Z,8.20
2022-08-20T03:45:40.900Z,8.30
2022-08-20T03:48:11.666Z,8.00
2022-08-20T03:50:42.028Z,8.20
2022-08-20T03:53:14.634Z,8.10
2022-08-20T03:55:46.279Z,8.00
2022-08-20T03:58:30.060Z,8.00
2022-08-20T04:01:06.474Z,7.80
2022-08-20T04:03:34.370Z,9.00
2022-08-20T04:06:01.792Z,8.50
2022-08-20T04:08:29.653Z,7.90
2022-08-20T04:10:57.524Z,9.90
2022-08-20T04:13:27.131Z,8.10
2022-08-20T04:15:55.109Z,7.70
2022-08-20T04:18:25.455Z,8.40
2022-08-20T04:20:53.552Z,8.30
2022-08-20T04:23:21.953Z,8.50
2022-08-20T04:25:49.490Z,9.20
2022-08-20T04:28:28.257Z,8.40
2022-08-20T04:30:58.410Z,8.90
2022-08-20T04:33:33.595Z,9.60
2022-08-20T04:36:03.332Z,8.20
2022-08-20T04:38:50.169Z,9.00
2022-08-20T04:41:23.146Z,9.40
2022-08-20T04:43:53.570Z,9.00
2022-08-20T04:46:23.314Z,9.00
2022-08-20T04:48:51.105Z,9.80
2022-08-20T04:51:22.793Z,8.10
2022-08-20T04:53:53.595Z,9.00
2022-08-20T04:56:25.091Z,9.20
2022-08-20T04:58:56.672Z,10.10
2022-08-20T05:01:25.558Z,9.50
2022-08-20T05:03:54.157Z,9.70
2022-08-20T05:06:25.264Z,8.90
2022-08-20T05:08:55.483Z,8.90
2022-08-20T05:11:30.143Z,8.50
2022-08-20T05:14:06.008Z,9.70
2022-08-20T05:16:39.859Z,9.50
2022-08-20T05:19:11.521Z,10.20
2022-08-20T05:21:40.102Z,10.60
2022-08-20T05:24:08.214Z,13.10
2022-08-20T05:26:35.946Z,12.00
2022-08-20T05:29:04.675Z,11.90
2022-08-20T05:31:34.291Z,10.50
2022-08-20T05:34:09.296Z,9.00
2022-08-20T05:36:40.257Z,9.70
2022-08-20T05:39:09.702Z,10.00
2022-08-20T05:41:38.558Z,9.30
2022-08-20T05:44:12.771Z,9.80
2022-08-20T05:46:42.212Z,10.30
2022-08-20T05:49:13.115Z,9.40
2022-08-20T05:54:08.539Z,9.60
2022-08-20T05:56:37.037Z,9.50
2022-08-20T05:59:07.959Z,9.70
2022-08-20T06:01:38.067Z,9.10
2022-08-20T06:04:24.941Z,7.80
2022-08-20T06:07:03.869Z,8.10
2022-08-20T06:09:32.758Z,9.60
2022-08-20T06:12:05.517Z,9.30
2022-08-20T06:14:33.607Z,8.50
2022-08-20T06:17:13.714Z,10.60
2022-08-20T06:19:45.050Z,11.00
2022-08-20T06:22:19.893Z,9.10
2022-08-20T06:24:54.883Z,8.90
2022-08-20T06:27:22.559Z,8.60
2022-08-20T06:29:51.134Z,8.80
2022-08-20T06:32:21.214Z,8.80
2022-08-20T06:35:06.787Z,9.70
2022-08-20T06:37:36.694Z,9.10
2022-08-20T06:40:16.454Z,9.00
2022-08-20T06:42:48.605Z,9.30
2022-08-20T06:45:24.237Z,8.90
2022-08-20T06:47:59.148Z,9.90
2022-08-20T06:50:32.934Z,9.50
2022-08-20T06:53:00.545Z,8.70
2022-08-20T06:55:28.197Z,8.70
2022-08-20T06:58:02.234Z,8.80
2022-08-20T07:00:32.561Z,8.50
2022-08-20T07:03:01.057Z,9.00
2022-08-20T07:05:30.577Z,9.00
2022-08-20T07:07:58.279Z,8.30
2022-08-20T07:10:26.824Z,7.80
2022-08-20T07:12:54.360Z,8.80
2022-08-20T07:15:25.511Z,7.90
2022-08-20T07:18:01.787Z,8.30
2022-08-20T07:20:31.346Z,8.20
2022-08-20T07:23:01.988Z,8.20
2022-08-20T07:25:31.289Z,7.80
2022-08-20T07:28:08.238Z,7.60
2022-08-20T07:30:56.778Z,7.80
2022-08-20T07:33:28.206Z,8.00
2022-08-20T07:36:01.525Z,8.30
2022-08-20T07:38:30.359Z,8.30
2022-08-20T07:41:07.799Z,7.90
2022-08-20T07:43:35.773Z,8.10
2022-08-20T07:46:08.605Z,7.60
2022-08-20T07:48:39.405Z,8.80
2022-08-20T07:51:09.239Z,8.40
2022-08-20T07:53:38.689Z,9.10
2022-08-20T07:56:13.294Z,8.00
2022-08-20T07:58:49.351Z,8.50
2022-08-20T08:01:25.368Z,6.80
2022-08-20T08:03:53.312Z,7.60
2022-08-20T08:06:29.939Z,6.60
2022-08-20T08:09:08.308Z,6.20
2022-08-20T08:11:38.945Z,7.20
2022-08-20T08:16:39.309Z,6.50
2022-08-20T08:19:09.206Z,6.20
2022-08-20T08:21:36.752Z,6.70
2022-08-20T08:24:21.650Z,6.20
2022-08-20T08:26:52.050Z,6.40
2022-08-20T08:29:19.984Z,5.90
2022-08-20T08:31:47.368Z,6.60
2022-08-20T08:34:14.706Z,7.20
2022-08-20T08:36:43.755Z,6.40
2022-08-20T08:39:11.647Z,6.50
2022-08-20T08:41:49.599Z,8.20
2022-08-20T08:44:24.583Z,6.70
2022-08-20T08:46:58.600Z,8.70
2022-08-20T08:49:37.799Z,6.60
2022-08-20T08:52:14.144Z,7.10
2022-08-20T08:54:49.292Z,6.80
2022-08-20T08:57:17.663Z,7.70
2022-08-20T09:00:03.482Z,5.80
2022-08-20T09:02:35.053Z,6.70
2022-08-20T09:05:14.615Z,6.20
2022-08-20T09:07:45.415Z,6.70
2022-08-20T09:12:44.456Z,6.40
2022-08-20T09:15:36.091Z,6.30
2022-08-20T09:18:03.479Z,5.80
2022-08-20T09:20:31.438Z,6.50
2022-08-20T09:22:58.938Z,5.90
2022-08-20T09:25:26.625Z,5.90
2022-08-20T09:27:54.120Z,6.10
2022-08-20T09:30:22.209Z,5.80
2022-08-20T09:32:50.768Z,6.90
2022-08-20T09:35:18.146Z,7.10
2022-08-20T09:37:46.503Z,6.60
2022-08-20T09:40:21.401Z,6.70
2022-08-20T09:45:17.553Z,6.30
2022-08-20T09:47:55.226Z,6.50
2022-08-20T09:50:27.057Z,7.20
2022-08-20T09:52:55.667Z,5.60
2022-08-20T09:55:39.919Z,6.60
2022-08-20T09:58:37.652Z,5.50
2022-08-20T10:01:14.561Z,6.10
2022-08-20T10:03:43.714Z,5.40
2022-08-20T10:06:14.289Z,5.80
2022-08-20T10:08:42.420Z,6.10
2022-08-20T10:11:10.230Z,5.90
2022-08-20T10:13:37.693Z,5.80
2022-08-20T10:16:05.518Z,5.20
2022-08-20T10:18:34.313Z,6.50
2022-08-20T10:21:01.757Z,5.90
2022-08-20T10:23:29.206Z,5.50
2022-08-20T10:25:56.584Z,5.80
2022-08-20T10:28:24.082Z,5.80
2022-08-20T10:30:51.438Z,5.40
2022-08-20T10:33:19.615Z,5.90
2022-08-20T10:35:47.040Z,5.20
2022-08-20T10:38:14.456Z,5.40
2022-08-20T10:40:41.960Z,5.90
2022-08-20T10:43:20.584Z,5.40
2022-08-20T10:45:48.641Z,5.20
2022-08-20T10:48:20.817Z,5.70
2022-08-20T10:50:50.006Z,5.10
2022-08-20T10:53:18.124Z,5.60
2022-08-20T10:55:45.639Z,5.50
2022-08-20T10:58:13.150Z,4.40
2022-08-20T11:00:41.384Z,5.00
2022-08-20T11:03:09.450Z,5.70
2022-08-20T11:05:37.066Z,5.30
2022-08-20T11:08:05.366Z,4.90
2022-08-20T11:10:35.213Z,5.60
2022-08-20T11:13:04.864Z,4.80
2022-08-20T11:15:38.773Z,4.40
2022-08-20T11:18:06.329Z,4.50
2022-08-20T11:20:34.845Z,4.30
2022-08-20T11:23:02.374Z,4.80
2022-08-20T11:25:30.474Z,4.90
2022-08-20T11:27:58.743Z,4.70
2022-08-20T11:30:30.470Z,4.80
2022-08-20T11:32:59.670Z,4.40
2022-08-20T11:35:49.463Z,4.00
2022-08-20T11:38:18.537Z,5.30
2022-08-20T11:40:46.401Z,4.00
2022-08-20T11:43:16.313Z,4.40
2022-08-20T11:45:47.705Z,4.70
2022-08-20T11:48:15.180Z,4.80
2022-08-20T11:50:46.673Z,4.90
2022-08-20T11:53:15.444Z,4.20
2022-08-20T11:55:43.508Z,4.80
2022-08-20T11:58:11.450Z,4.20
2022-08-20T12:00:39.422Z,4.40
2022-08-20T12:03:09.496Z,4.50
2022-08-20T12:05:41.667Z,4.40
2022-08-20T12:08:09.921Z,4.40
2022-08-20T12:10:38.392Z,4.80
2022-08-20T12:13:07.052Z,4.40
2022-08-20T12:15:36.379Z,4.90
2022-08-20T12:18:08.031Z,4.10
2022-08-20T12:20:37.158Z,4.10
2022-08-20T12:23:04.574Z,4.30
2022-08-20T12:25:32.222Z,4.50
2022-08-20T12:28:00.146Z,4.20
2022-08-20T12:30:27.811Z,4.00
2022-08-20T12:32:55.458Z,5.20
2022-08-20T12:35:22.995Z,4.10
2022-08-20T12:37:50.863Z,4.10
2022-08-20T12:40:31.955Z,4.80
2022-08-20T12:43:02.527Z,4.50
2022-08-20T12:45:31.642Z,4.40
2022-08-20T12:48:10.339Z,4.50
2022-08-20T12:50:42.581Z,4.90
2022-08-20T12:53:10.500Z,4.20
2022-08-20T12:55:38.255Z,4.60
2022-08-20T12:58:09.449Z,4.40
2022-08-20T13:00:44.265Z,5.00
2022-08-20T13:03:17.250Z,5.00
2022-08-20T13:05:44.706Z,4.80
2022-08-20T13:08:12.792Z,4.30
2022-08-20T13:10:44.837Z,4.30
2022-08-20T13:13:20.066Z,4.90
2022-08-20T13:15:50.583Z,4.30
2022-08-20T13:18:18.759Z,4.20
2022-08-20T13:20:46.445Z,4.20
2022-08-20T13:23:14.249Z,4.40
2022-08-20T13:25:41.926Z,4.00
2022-08-20T13:28:09.621Z,4.10
2022-08-20T13:30:38.689Z,4.10
2022-08-20T13:33:07.789Z,4.60
2022-08-20T13:35:35.495Z,4.60
2022-08-20T13:38:03.071Z,4.90
2022-08-20T13:40:31.553Z,4.40
2022-08-20T13:43:04.575Z,4.90
2022-08-20T13:45:36.131Z,4.50
2022-08-20T13:48:05.254Z,5.00
2022-08-20T13:50:37.697Z,4.90
2022-08-20T13:53:05.391Z,4.80
2022-08-20T13:55:34.689Z,5.40
2022-08-20T13:58:10.096Z,4.60
2022-08-20T14:00:37.695Z,5.10
2022-08-20T14:03:06.699Z,4.90
2022-08-20T14:05:35.442Z,4.50
2022-08-20T14:08:19.893Z,4.30
2022-08-20T14:10:50.412Z,4.50
2022-08-20T14:13:22.733Z,4.30
2022-08-20T14:15:50.772Z,4.60
2022-08-20T14:18:19.445Z,4.90
2022-08-20T14:20:46.863Z,4.80
2022-08-20T14:23:15.077Z,4.90
2022-08-20T14:25:46.577Z,4.40
2022-08-20T14:28:22.878Z,4.90
2022-08-20T14:30:53.009Z,4.40
2022-08-20T14:35:50.457Z,4.30
2022-08-20T14:38:17.929Z,5.10
2022-08-20T14:40:45.473Z,4.50
2022-08-20T14:43:12.958Z,5.70
2022-08-20T14:45:40.353Z,4.90
2022-08-20T14:48:08.954Z,4.90
2022-08-20T14:50:37.157Z,5.10
2022-08-20T14:53:04.910Z,5.10
2022-08-20T14:55:36.948Z,5.10
2022-08-20T14:58:12.280Z,5.40
2022-08-20T15:00:40.553Z,4.50
2022-08-20T15:03:08.026Z,4.60
2022-08-20T15:05:39.376Z,5.10
2022-08-20T15:08:10.609Z,5.20
2022-08-20T15:10:38.923Z,4.60
2022-08-20T15:13:07.242Z,4.70
2022-08-20T15:15:34.980Z,4.80
2022-08-20T15:18:03.057Z,4.20
2022-08-20T15:20:32.965Z,4.90
2022-08-20T15:23:01.191Z,4.50
2022-08-20T15:25:36.194Z,4.60
2022-08-20T15:28:08.194Z,4.70
2022-08-20T15:30:38.135Z,4.30
2022-08-20T15:33:06.055Z,5.10
2022-08-20T15:35:33.776Z,4.60
2022-08-20T15:38:01.685Z,4.50
2022-08-20T15:40:31.671Z,5.20
2022-08-20T15:43:02.115Z,4.40
2022-08-20T15:45:31.303Z,6.80
2022-08-20T15:48:07.895Z,4.80
2022-08-20T15:50:51.945Z,5.80
2022-08-20T15:53:43.407Z,5.00
2022-08-20T15:56:38.674Z,5.40
2022-08-20T15:59:57.402Z,5.30
2022-08-20T16:02:58.478Z,4.30
2022-08-20T16:05:41.246Z,4.50
2022-08-20T16:08:51.693Z,4.50
2022-08-20T16:11:47.332Z,4.30
2022-08-20T16:14:26.809Z,4.90
2022-08-20T16:17:01.795Z,4.70
2022-08-20T16:19:52.984Z,5.00
2022-08-20T16:22:20.748Z,4.90
2022-08-20T16:24:48.983Z,6.10
2022-08-20T16:27:29.598Z,5.50
2022-08-20T16:30:09.339Z,5.30
2022-08-20T16:32:46.243Z,6.20
2022-08-20T16:35:38.033Z,6.90
2022-08-20T16:38:39.351Z,6.50
2022-08-20T16:41:45.707Z,6.20
2022-08-20T16:44:28.781Z,5.50
2022-08-20T16:47:28.546Z,6.80
2022-08-20T16:50:17.441Z,6.40
2022-08-20T16:52:46.735Z,6.60
2022-08-20T16:55:15.278Z,6.70
2022-08-20T16:57:44.067Z,6.70
2022-08-20T17:00:19.486Z,6.40
2022-08-20T17:03:01.801Z,5.90
2022-08-20T17:05:38.185Z,6.80
2022-08-20T17:08:08.903Z,6.10
2022-08-20T17:11:10.763Z,6.80
2022-08-20T17:13:46.858Z,6.30
2022-08-20T17:16:14.212Z,5.50
2022-08-20T17:18:46.498Z,6.10
2022-08-20T17:21:24.171Z,5.40
2022-08-20T17:24:02.387Z,5.50
2022-08-20T17:26:34.869Z,5.80
2022-08-20T17:29:17.421Z,5.50
2022-08-20T17:31:55.389Z,5.50
2022-08-20T17:34:44.086Z,5.50
2022-08-20T17:37:23.625Z,5.70
2022-08-20T17:40:05.299Z,6.00
2022-08-20T17:42:33.159Z,5.60
2022-08-20T17:45:14.201Z,5.50
2022-08-20T17:50:13.770Z,5.60
2022-08-20T17:52:56.374Z,5.90
2022-08-20T17:55:24.898Z,5.50
2022-08-20T17:57:57.142Z,5.40
2022-08-20T18:00:27.917Z,6.10
2022-08-20T18:03:06.190Z,6.30
2022-08-20T18:05:35.706Z,6.50
2022-08-20T18:08:32.984Z,5.60
2022-08-20T18:11:22.362Z,5.90
2022-08-20T18:13:59.116Z,6.00
2022-08-20T18:16:49.866Z,6.20
2022-08-20T18:20:05.172Z,6.40
2022-08-20T18:23:03.907Z,6.10
2022-08-20T18:25:40.520Z,6.50
2022-08-20T18:28:25.130Z,6.10
2022-08-20T18:31:02.552Z,6.10
2022-08-20T18:33:42.070Z,6.00
2022-08-20T18:36:17.899Z,6.60
2022-08-20T18:39:09.795Z,6.90
2022-08-20T18:41:56.616Z,7.20
2022-08-20T18:44:45.242Z,7.30
2022-08-20T18:47:21.062Z,6.60
2022-08-20T18:50:16.125Z,6.60
2022-08-20T18:53:11.360Z,6.20
2022-08-20T18:55:49.175Z,6.60
2022-08-20T18:58:48.254Z,6.20
2022-08-20T19:01:15.788Z,6.60
2022-08-20T19:03:50.886Z,6.70
2022-08-20T19:06:21.582Z,6.90
2022-08-20T19:09:27.285Z,7.20
2022-08-20T19:12:31.167Z,7.50
2022-08-20T19:15:08.482Z,6.90
2022-08-20T19:17:43.906Z,7.00
2022-08-20T19:20:18.678Z,6.60
2022-08-20T19:22:47.996Z,6.40
2022-08-20T19:25:40.842Z,6.20
2022-08-20T19:29:15.915Z,5.80
2022-08-20T19:31:48.921Z,7.00
2022-08-20T19:34:24.842Z,6.70
2022-08-20T19:37:04.539Z,6.60
2022-08-20T19:39:50.437Z,6.70
2022-08-20T19:42:32.926Z,6.00
2022-08-20T19:45:03.962Z,6.40
2022-08-20T19:47:49.654Z,6.70
2022-08-20T19:50:36.697Z,6.70
2022-08-20T19:53:35.871Z,6.50
2022-08-20T19:56:11.060Z,6.50
2022-08-20T19:58:39.291Z,7.50
2022-08-20T20:01:17.440Z,7.10
2022-08-20T20:03:59.822Z,6.80
2022-08-20T20:06:30.728Z,6.10
2022-08-20T20:09:05.616Z,6.20
2022-08-20T20:11:46.352Z,6.20
2022-08-20T20:14:28.874Z,6.30
2022-08-20T20:16:58.036Z,5.80
2022-08-20T20:19:27.475Z,6.40
2022-08-20T20:22:19.867Z,6.70
2022-08-20T20:25:18.253Z,6.50
2022-08-20T20:27:51.486Z,6.50
2022-08-20T20:30:31.620Z,6.30
2022-08-20T20:33:09.273Z,6.00
2022-08-20T20:35:37.245Z,5.80
2022-08-20T20:38:09.520Z,5.60
2022-08-20T20:40:46.878Z,7.20
2022-08-20T20:43:25.635Z,7.40
2022-08-20T20:46:20.890Z,6.80
2022-08-20T20:48:57.236Z,5.80
2022-08-20T20:51:28.372Z,5.70
2022-08-20T20:54:04.523Z,5.70
2022-08-20T20:56:42.466Z,5.60
2022-08-20T20:59:10.994Z,5.60
2022-08-20T21:01:48.183Z,5.60
2022-08-20T21:04:21.361Z,5.70
2022-08-20T21:06:50.999Z,5.80
2022-08-20T21:09:18.674Z,5.80
2022-08-20T21:11:46.848Z,5.30
2022-08-20T21:14:15.235Z,5.10
2022-08-20T21:16:43.038Z,5.30
2022-08-20T21:19:13.562Z,5.60
2022-08-20T21:21:41.235Z,5.30
2022-08-20T21:24:08.922Z,5.00
2022-08-20T21:26:39.119Z,4.30
2022-08-20T21:29:08.991Z,4.70
2022-08-20T21:31:43.727Z,5.20
2022-08-20T21:34:13.212Z,5.30
2022-08-20T21:36:41.618Z,5.40
2022-08-20T21:39:09.997Z,4.90
2022-08-20T21:41:38.188Z,5.20
2022-08-20T21:44:16.675Z,5.30
2022-08-20T21:46:50.915Z,4.90
2022-08-20T21:49:22.152Z,4.90
2022-08-20T21:51:50.624Z,5.30
2022-08-20T21:54:19.303Z,5.10
2022-08-20T21:56:51.672Z,5.00
2022-08-20T21:59:21.622Z,4.50
2022-08-20T22:01:49.253Z,4.60
2022-08-20T22:04:17.266Z,4.20
2022-08-20T22:06:45.127Z,4.40
2022-08-20T22:09:13.254Z,4.40
2022-08-20T22:11:40.988Z,4.60
2022-08-20T22:14:19.552Z,4.60
2022-08-20T22:16:46.998Z,4.40
2022-08-20T22:19:16.184Z,4.50
2022-08-20T22:21:44.127Z,4.40
2022-08-20T22:24:11.832Z,4.90
2022-08-20T22:26:40.465Z,4.40
2022-08-20T22:29:10.543Z,5.00
2022-08-20T22:31:42.072Z,5.10
2022-08-20T22:34:12.243Z,5.10
2022-08-20T22:36:40.101Z,5.20
2022-08-20T22:39:07.702Z,5.20
2022-08-20T22:41:35.392Z,4.70
2022-08-20T22:44:03.598Z,5.00
2022-08-20T22:46:38.407Z,4.90
2022-08-20T22:49:10.338Z,5.30
2022-08-20T22:51:39.145Z,4.70
2022-08-20T22:54:12.369Z,5.30
2022-08-20T22:56:40.888Z,5.60
2022-08-20T22:59:08.682Z,5.00
2022-08-20T23:01:36.844Z,5.80
2022-08-20T23:04:27.619Z,6.50
2022-08-20T23:06:56.081Z,6.00
2022-08-20T23:09:24.309Z,6.20
2022-08-20T23:11:52.402Z,5.80
2022-08-20T23:14:19.876Z,5.70
2022-08-20T23:16:56.048Z,6.00
2022-08-20T23:19:25.322Z,6.30
2022-08-20T23:21:52.886Z,5.90
2022-08-20T23:24:20.525Z,6.50
2022-08-20T23:26:52.917Z,6.50
2022-08-20T23:29:25.907Z,6.30
2022-08-20T23:31:56.284Z,6.60
2022-08-20T23:34:25.282Z,7.30
2022-08-20T23:36:54.107Z,7.00
2022-08-20T23:39:21.937Z,6.40
2022-08-20T23:41:49.357Z,7.20
2022-08-20T23:44:25.400Z,9.90
2022-08-20T23:46:57.322Z,9.80
2022-08-20T23:49:26.745Z,10.30
2022-08-20T23:51:54.459Z,9.20
2022-08-20T23:54:22.070Z,6.30
2022-08-20T23:56:49.446Z,6.10
2022-08-20T23:59:17.323Z,6.10
